Time;durP1;ratioP1;P1;durP2;ratioP2;P2;SDS_P1;SDS_P2;PMS_P1;PMS_P2;Temp;Humidity;BMP_temperature;BMP_pressure;BME280_temperature;BME280_humidity;BME280_pressure;Samples;Min_cycle;Max_cycle;Signal;HPM_P1;HPM_P2
2023/06/25 00:00:47;;;;;;;6.90;4.87;;;;;;;;;;5040925;28;20494;-62
2023/06/25 00:03:14;;;;;;;6.43;4.93;;;;;;;;;;5041218;28;20463;-62
2023/06/25 00:05:41;;;;;;;7.05;4.90;;;;;;;;;;5035131;28;20411;-62
2023/06/25 00:08:08;;;;;;;6.85;4.97;;;;;;;;;;5040850;28;21221;-62
2023/06/25 00:10:35;;;;;;;7.00;4.90;;;;;;;;;;5045556;28;20442;-62
2023/06/25 00:13:02;;;;;;;9.07;4.57;;;;;;;;;;5040029;28;20469;-61
2023/06/25 00:15:29;;;;;;;8.17;4.90;;;;;;;;;;5039072;28;20570;-62
2023/06/25 00:17:57;;;;;;;8.65;5.20;;;;;;;;;;5035259;28;20426;-62
2023/06/25 00:20:24;;;;;;;6.00;4.90;;;;;;;;;;5039136;28;20415;-62
2023/06/25 00:22:52;;;;;;;6.95;5.22;;;;;;;;;;5041474;28;20794;-62
2023/06/25 00:25:19;;;;;;;5.97;5.07;;;;;;;;;;5045261;28;20414;-64
2023/06/25 00:27:47;;;;;;;8.45;4.78;;;;;;;;;;5047365;28;20821;-64
2023/06/25 00:30:14;;;;;;;6.78;4.90;;;;;;;;;;5044981;28;20429;-63
2023/06/25 00:32:41;;;;;;;6.45;5.05;;;;;;;;;;5044599;28;20414;-63
2023/06/25 00:35:10;;;;;;;6.78;5.07;;;;;;;;;;5040220;28;20437;-64
2023/06/25 00:37:37;;;;;;;6.22;4.75;;;;;;;;;;5046119;28;20480;-63
2023/06/25 00:40:09;;;;;;;7.38;5.15;;;;;;;;;;5049976;28;20419;-63
2023/06/25 00:42:41;;;;;;;6.10;4.72;;;;;;;;;;5045369;28;20419;-64
2023/06/25 00:45:09;;;;;;;5.70;4.80;;;;;;;;;;5040668;28;20414;-64
2023/06/25 00:47:36;;;;;;;6.25;4.68;;;;;;;;;;5044458;28;20442;-64
2023/06/25 00:50:03;;;;;;;8.57;5.07;;;;;;;;;;5046113;28;20416;-63
2023/06/25 00:52:32;;;;;;;6.53;4.77;;;;;;;;;;5045470;28;20574;-64
2023/06/25 00:54:59;;;;;;;6.60;5.22;;;;;;;;;;5044488;28;20411;-64
2023/06/25 00:57:27;;;;;;;6.38;5.20;;;;;;;;;;5046009;28;20429;-64
2023/06/25 00:59:55;;;;;;;6.32;4.95;;;;;;;;;;5045312;28;20817;-63
2023/06/25 01:02:24;;;;;;;6.32;4.78;;;;;;;;;;5044359;28;20772;-63
2023/06/25 01:04:57;;;;;;;7.30;5.03;;;;;;;;;;5050290;28;20467;-64
2023/06/25 01:07:25;;;;;;;7.93;5.20;;;;;;;;;;5048449;28;20434;-63
2023/06/25 01:09:54;;;;;;;9.10;5.00;;;;;;;;;;5048930;28;20411;-62
2023/06/25 01:12:21;;;;;;;7.38;5.15;;;;;;;;;;5041092;28;20893;-62
2023/06/25 01:14:49;;;;;;;6.45;5.00;;;;;;;;;;5044100;28;20475;-61
2023/06/25 01:17:16;;;;;;;7.30;5.25;;;;;;;;;;5041799;28;20916;-61
2023/06/25 01:19:43;;;;;;;6.95;5.20;;;;;;;;;;5043079;28;20520;-61
2023/06/25 01:22:10;;;;;;;7.07;5.65;;;;;;;;;;5043954;28;20889;-61
2023/06/25 01:24:40;;;;;;;9.30;5.63;;;;;;;;;;5042939;28;20415;-61
2023/06/25 01:27:07;;;;;;;7.38;5.60;;;;;;;;;;5041757;28;20458;-58
2023/06/25 01:29:34;;;;;;;7.20;5.80;;;;;;;;;;5044532;28;20502;-57
2023/06/25 01:32:01;;;;;;;7.40;5.72;;;;;;;;;;5042175;28;20455;-60
2023/06/25 01:34:28;;;;;;;7.37;5.47;;;;;;;;;;5044269;28;20542;-58
2023/06/25 01:36:55;;;;;;;9.05;5.63;;;;;;;;;;5040690;28;20498;-61
2023/06/25 01:39:23;;;;;;;7.47;5.95;;;;;;;;;;5045861;28;20508;-61
2023/06/25 01:41:51;;;;;;;9.10;6.10;;;;;;;;;;5043460;28;20439;-58
2023/06/25 01:44:20;;;;;;;8.13;5.72;;;;;;;;;;5044202;28;20908;-62
2023/06/25 01:46:47;;;;;;;8.33;5.70;;;;;;;;;;5038132;28;20418;-60
2023/06/25 01:49:14;;;;;;;7.93;5.70;;;;;;;;;;5043295;28;20409;-61
2023/06/25 01:51:42;;;;;;;7.20;6.00;;;;;;;;;;5041315;28;20419;-61
2023/06/25 01:54:09;;;;;;;7.65;5.85;;;;;;;;;;5042215;28;20425;-61
2023/06/25 01:56:35;;;;;;;7.38;5.40;;;;;;;;;;5043821;28;20421;-60
2023/06/25 01:59:04;;;;;;;6.85;5.72;;;;;;;;;;5042014;28;20418;-60
2023/06/25 02:01:31;;;;;;;7.78;5.57;;;;;;;;;;5040861;28;20423;-60
2023/06/25 02:03:58;;;;;;;8.25;5.55;;;;;;;;;;5037500;28;20480;-61
2023/06/25 02:06:25;;;;;;;7.37;5.80;;;;;;;;;;5041117;28;20475;-63
2023/06/25 02:08:52;;;;;;;7.68;5.95;;;;;;;;;;5045422;28;20469;-63
2023/06/25 02:11:19;;;;;;;8.35;5.43;;;;;;;;;;5051842;28;20419;-63
2023/06/25 02:13:46;;;;;;;8.60;5.70;;;;;;;;;;5045270;28;20469;-62
2023/06/25 02:16:14;;;;;;;7.53;5.50;;;;;;;;;;5041072;28;20900;-62
2023/06/25 02:18:41;;;;;;;6.40;5.32;;;;;;;;;;5045163;28;20430;-61
2023/06/25 02:21:08;;;;;;;6.43;5.38;;;;;;;;;;5046607;28;20479;-62
2023/06/25 02:23:35;;;;;;;8.00;5.67;;;;;;;;;;5047036;28;20415;-62
2023/06/25 02:26:02;;;;;;;6.80;5.45;;;;;;;;;;5048360;28;20417;-60
2023/06/25 02:28:29;;;;;;;7.50;5.70;;;;;;;;;;5045434;28;20537;-58
2023/06/25 02:30:56;;;;;;;8.05;5.90;;;;;;;;;;5041028;28;20418;-60
2023/06/25 02:33:25;;;;;;;8.05;5.97;;;;;;;;;;5041622;28;20423;-60
2023/06/25 02:35:52;;;;;;;12.05;6.03;;;;;;;;;;5041962;28;21108;-60
2023/06/25 02:38:19;;;;;;;7.47;6.40;;;;;;;;;;5043655;28;20432;-60
2023/06/25 02:40:46;;;;;;;8.10;6.28;;;;;;;;;;5044952;28;20775;-61
2023/06/25 02:43:13;;;;;;;8.00;6.15;;;;;;;;;;5039773;28;20831;-61
2023/06/25 02:45:40;;;;;;;9.35;6.80;;;;;;;;;;5037850;28;20483;-61
2023/06/25 02:48:07;;;;;;;8.15;6.53;;;;;;;;;;5040798;28;20419;-61
2023/06/25 02:50:35;;;;;;;9.70;6.80;;;;;;;;;;5042310;28;20418;-61
2023/06/25 02:53:03;;;;;;;8.02;6.82;;;;;;;;;;5041536;28;20419;-61
2023/06/25 02:55:30;;;;;;;9.10;7.13;;;;;;;;;;5040048;28;20481;-60
2023/06/25 02:57:57;;;;;;;8.77;6.78;;;;;;;;;;5037809;28;20426;-60
2023/06/25 03:00:24;;;;;;;9.27;7.13;;;;;;;;;;5039472;28;20429;-61
2023/06/25 03:02:51;;;;;;;9.93;7.15;;;;;;;;;;5039866;28;20887;-61
2023/06/25 03:05:18;;;;;;;8.48;7.35;;;;;;;;;;5041056;28;20463;-61
2023/06/25 03:07:54;;;;;;;8.55;7.63;;;;;;;;;;5040401;28;20899;-61
2023/06/25 03:10:21;;;;;;;8.40;7.23;;;;;;;;;;5043372;28;20479;-60
2023/06/25 03:12:48;;;;;;;9.50;7.93;;;;;;;;;;5039732;28;20422;-61
2023/06/25 03:15:17;;;;;;;8.02;7.03;;;;;;;;;;5040589;28;20413;-61
2023/06/25 03:17:44;;;;;;;9.65;7.70;;;;;;;;;;5042413;28;20515;-56
2023/06/25 03:20:11;;;;;;;9.50;7.63;;;;;;;;;;5039893;28;20427;-58
2023/06/25 03:22:38;;;;;;;8.77;7.88;;;;;;;;;;5042786;28;20529;-63
2023/06/25 03:25:07;;;;;;;8.70;7.43;;;;;;;;;;5039864;28;21026;-63
2023/06/25 03:27:35;;;;;;;8.68;7.47;;;;;;;;;;5044484;28;20407;-63
2023/06/25 03:30:02;;;;;;;9.82;7.88;;;;;;;;;;5046402;28;20479;-63
2023/06/25 03:32:29;;;;;;;10.65;7.95;;;;;;;;;;5045829;28;20446;-63
2023/06/25 03:34:56;;;;;;;9.32;7.88;;;;;;;;;;5044039;28;20421;-62
2023/06/25 03:37:23;;;;;;;8.68;7.45;;;;;;;;;;5042773;28;20443;-60
2023/06/25 03:39:50;;;;;;;9.57;8.27;;;;;;;;;;5038093;28;20450;-61
2023/06/25 03:42:18;;;;;;;8.23;7.43;;;;;;;;;;5043154;28;20482;-60
2023/06/25 03:44:47;;;;;;;9.33;7.87;;;;;;;;;;5043299;28;20880;-60
2023/06/25 03:47:14;;;;;;;8.88;7.95;;;;;;;;;;5042343;28;20413;-60
2023/06/25 03:49:41;;;;;;;8.55;7.60;;;;;;;;;;5037885;28;20469;-60
2023/06/25 03:52:08;;;;;;;8.80;7.90;;;;;;;;;;5040414;28;20425;-59
2023/06/25 03:54:35;;;;;;;9.23;7.50;;;;;;;;;;5043940;28;20471;-60
2023/06/25 03:57:02;;;;;;;9.57;8.25;;;;;;;;;;5041223;28;20417;-63
2023/06/25 03:59:31;;;;;;;8.65;7.47;;;;;;;;;;5037537;28;20425;-59
2023/06/25 04:01:58;;;;;;;12.65;8.60;;;;;;;;;;5041509;28;20426;-57
2023/06/25 04:04:25;;;;;;;8.65;7.57;;;;;;;;;;5041488;28;20436;-60
2023/06/25 04:06:52;;;;;;;12.00;7.90;;;;;;;;;;5039030;28;20410;-59
2023/06/25 04:09:19;;;;;;;9.02;8.13;;;;;;;;;;5037851;28;20439;-59
2023/06/25 04:11:46;;;;;;;8.63;7.50;;;;;;;;;;5031390;28;20415;-60
2023/06/25 04:14:13;;;;;;;9.63;7.55;;;;;;;;;;5032398;28;20479;-60
2023/06/25 04:16:42;;;;;;;8.77;7.70;;;;;;;;;;5037743;28;20541;-60
2023/06/25 04:19:09;;;;;;;8.60;7.70;;;;;;;;;;5040138;28;20461;-59
2023/06/25 04:21:36;;;;;;;9.97;7.83;;;;;;;;;;5040620;28;20837;-59
2023/06/25 04:24:03;;;;;;;10.10;7.60;;;;;;;;;;5039559;28;20422;-61
2023/06/25 04:26:30;;;;;;;8.25;7.43;;;;;;;;;;5038894;28;20827;-60
2023/06/25 04:28:57;;;;;;;8.98;7.85;;;;;;;;;;5039683;28;20440;-60
2023/06/25 04:31:24;;;;;;;9.20;7.78;;;;;;;;;;5030121;28;21344;-60
2023/06/25 04:33:53;;;;;;;8.95;7.95;;;;;;;;;;5033511;28;20434;-57
2023/06/25 04:36:20;;;;;;;8.80;7.45;;;;;;;;;;5038921;28;20473;-60
2023/06/25 04:38:47;;;;;;;8.35;7.38;;;;;;;;;;5042738;28;20756;-61
2023/06/25 04:41:14;;;;;;;8.43;7.57;;;;;;;;;;5046549;28;20473;-58
2023/06/25 04:43:41;;;;;;;7.88;7.07;;;;;;;;;;5045757;28;20480;-61
2023/06/25 04:46:08;;;;;;;8.20;7.30;;;;;;;;;;5048553;28;20453;-60
2023/06/25 04:48:35;;;;;;;9.05;7.07;;;;;;;;;;5041044;28;21094;-60
2023/06/25 04:51:04;;;;;;;9.32;7.40;;;;;;;;;;5037405;28;20421;-60
2023/06/25 04:53:31;;;;;;;9.48;7.65;;;;;;;;;;5044154;28;20455;-58
2023/06/25 04:55:58;;;;;;;7.90;7.00;;;;;;;;;;5040441;28;20785;-61
2023/06/25 04:58:25;;;;;;;10.23;7.47;;;;;;;;;;5041133;28;20424;-60
2023/06/25 05:00:52;;;;;;;9.23;7.35;;;;;;;;;;5043813;28;20421;-61
2023/06/25 05:03:19;;;;;;;8.57;7.13;;;;;;;;;;5041956;28;20775;-58
2023/06/25 05:05:46;;;;;;;8.88;6.97;;;;;;;;;;5043246;28;20425;-61
2023/06/25 05:08:15;;;;;;;8.55;6.85;;;;;;;;;;5044398;28;20413;-61
2023/06/25 05:10:43;;;;;;;8.05;7.25;;;;;;;;;;5042920;28;20417;-62
2023/06/25 05:13:10;;;;;;;7.70;6.90;;;;;;;;;;5044431;28;20444;-58
2023/06/25 05:15:39;;;;;;;8.20;6.90;;;;;;;;;;5047332;28;20424;-61
2023/06/25 05:18:06;;;;;;;9.30;7.50;;;;;;;;;;5044323;28;20513;-61
2023/06/25 05:20:35;;;;;;;9.73;7.20;;;;;;;;;;5044160;28;20495;-61
2023/06/25 05:23:02;;;;;;;7.43;6.63;;;;;;;;;;5043391;28;20458;-61
2023/06/25 05:25:31;;;;;;;8.18;7.22;;;;;;;;;;5041811;28;20799;-61
2023/06/25 05:27:58;;;;;;;8.43;6.95;;;;;;;;;;5043588;28;20463;-61
2023/06/25 05:30:25;;;;;;;8.88;6.97;;;;;;;;;;5040479;28;20421;-61
2023/06/25 05:32:52;;;;;;;7.65;6.78;;;;;;;;;;5036108;28;20419;-63
2023/06/25 05:35:19;;;;;;;7.90;6.95;;;;;;;;;;5045008;28;20468;-63
2023/06/25 05:37:46;;;;;;;7.97;6.90;;;;;;;;;;5043190;28;20465;-63
2023/06/25 05:40:13;;;;;;;7.80;6.83;;;;;;;;;;5039163;28;20900;-63
2023/06/25 05:42:42;;;;;;;7.68;6.93;;;;;;;;;;5045291;28;20413;-63
2023/06/25 05:45:09;;;;;;;7.60;6.85;;;;;;;;;;5043858;28;20811;-63
2023/06/25 05:47:36;;;;;;;9.32;6.80;;;;;;;;;;5040479;28;20421;-63
2023/06/25 05:50:04;;;;;;;8.50;6.72;;;;;;;;;;5040076;28;20831;-63
2023/06/25 05:52:31;;;;;;;9.70;6.70;;;;;;;;;;5042851;28;20423;-63
2023/06/25 05:54:58;;;;;;;7.63;6.25;;;;;;;;;;5043740;28;20419;-62
2023/06/25 05:57:25;;;;;;;7.32;6.53;;;;;;;;;;5045310;28;20470;-63
2023/06/25 05:59:54;;;;;;;7.63;6.72;;;;;;;;;;5041034;28;20443;-61
2023/06/25 06:02:20;;;;;;;7.97;6.43;;;;;;;;;;5043434;28;20419;-68
2023/06/25 06:04:48;;;;;;;8.07;6.55;;;;;;;;;;5047126;28;20800;-64
2023/06/25 06:07:15;;;;;;;7.95;6.43;;;;;;;;;;5041570;28;20942;-64
2023/06/25 06:09:41;;;;;;;7.07;6.38;;;;;;;;;;5045534;28;20421;-64
2023/06/25 06:12:09;;;;;;;7.05;6.35;;;;;;;;;;5046809;28;20443;-65
2023/06/25 06:14:38;;;;;;;7.00;6.15;;;;;;;;;;5053719;28;20421;-65
2023/06/25 06:17:06;;;;;;;8.48;6.68;;;;;;;;;;5050551;28;20425;-65
2023/06/25 06:19:34;;;;;;;8.40;6.78;;;;;;;;;;5041470;28;20448;-65
2023/06/25 06:22:01;;;;;;;7.32;6.28;;;;;;;;;;5052345;28;20428;-65
2023/06/25 06:24:28;;;;;;;7.05;6.35;;;;;;;;;;5050619;28;20423;-64
2023/06/25 06:26:55;;;;;;;6.80;5.88;;;;;;;;;;5045060;28;20500;-64
2023/06/25 06:29:22;;;;;;;7.30;6.40;;;;;;;;;;5040301;28;20887;-64
2023/06/25 06:31:49;;;;;;;6.75;5.93;;;;;;;;;;5044049;28;20421;-64
2023/06/25 06:34:17;;;;;;;7.37;6.17;;;;;;;;;;5042280;28;20974;-63
2023/06/25 06:36:44;;;;;;;7.18;5.85;;;;;;;;;;5035188;28;20421;-64
2023/06/25 06:39:12;;;;;;;6.82;6.07;;;;;;;;;;5046280;28;20425;-65
2023/06/25 06:41:39;;;;;;;9.13;6.40;;;;;;;;;;5051780;28;20448;-65
2023/06/25 06:44:12;;;;;;;7.13;6.07;;;;;;;;;;5051164;28;20830;-64
2023/06/25 06:46:39;;;;;;;7.82;6.10;;;;;;;;;;5048284;28;20418;-64
2023/06/25 06:49:06;;;;;;;8.38;6.40;;;;;;;;;;5051469;28;20406;-64
2023/06/25 06:51:35;;;;;;;8.05;6.18;;;;;;;;;;5052101;28;20413;-65
2023/06/25 06:54:02;;;;;;;9.30;6.30;;;;;;;;;;5047062;28;20415;-63
2023/06/25 06:56:29;;;;;;;8.77;6.70;;;;;;;;;;5040696;28;20827;-64
2023/06/25 06:58:56;;;;;;;9.20;6.00;;;;;;;;;;5043673;28;20423;-63
2023/06/25 07:01:23;;;;;;;7.00;6.30;;;;;;;;;;5042298;28;20880;-64
2023/06/25 07:03:50;;;;;;;6.47;5.78;;;;;;;;;;5039250;28;20481;-62
2023/06/25 07:06:17;;;;;;;6.70;6.00;;;;;;;;;;5041695;28;20470;-64
2023/06/25 07:08:45;;;;;;;6.82;6.00;;;;;;;;;;5040527;28;20415;-63
2023/06/25 07:11:12;;;;;;;7.78;5.90;;;;;;;;;;5045446;28;20442;-63
2023/06/25 07:13:40;;;;;;;6.65;5.75;;;;;;;;;;5030665;28;20945;-61
2023/06/25 07:16:07;;;;;;;7.45;6.00;;;;;;;;;;5045640;28;20424;-62
2023/06/25 07:18:34;;;;;;;6.43;5.68;;;;;;;;;;5041307;28;20431;-63
2023/06/25 07:21:01;;;;;;;6.82;5.72;;;;;;;;;;5045787;28;20911;-62
2023/06/25 07:23:28;;;;;;;7.70;5.85;;;;;;;;;;5040954;28;20427;-65
2023/06/25 07:25:56;;;;;;;6.72;5.75;;;;;;;;;;5039984;28;20414;-67
2023/06/25 07:28:23;;;;;;;6.63;5.37;;;;;;;;;;5042114;28;20439;-67
2023/06/25 07:30:50;;;;;;;6.60;5.72;;;;;;;;;;5040358;28;20442;-66
2023/06/25 07:33:17;;;;;;;6.72;5.63;;;;;;;;;;5035033;28;20973;-63
2023/06/25 07:35:44;;;;;;;7.30;5.80;;;;;;;;;;5040443;28;20494;-63
2023/06/25 07:38:11;;;;;;;7.50;5.95;;;;;;;;;;5040814;28;20417;-63
2023/06/25 07:40:38;;;;;;;6.80;5.18;;;;;;;;;;5045439;28;20664;-63
2023/06/25 07:43:07;;;;;;;7.18;5.45;;;;;;;;;;5040587;28;20417;-63
2023/06/25 07:45:34;;;;;;;6.40;5.28;;;;;;;;;;5038746;28;20419;-63
2023/06/25 07:48:01;;;;;;;5.65;5.05;;;;;;;;;;5040324;28;20491;-62
2023/06/25 07:50:28;;;;;;;6.03;5.43;;;;;;;;;;5041367;28;20406;-62
2023/06/25 07:52:55;;;;;;;7.18;5.25;;;;;;;;;;5038767;28;20419;-63
2023/06/25 07:55:22;;;;;;;6.13;5.00;;;;;;;;;;5039858;28;20425;-63
2023/06/25 07:57:49;;;;;;;5.47;4.93;;;;;;;;;;5038529;28;20418;-62
2023/06/25 08:00:17;;;;;;;10.75;5.25;;;;;;;;;;5039803;28;20506;-63
2023/06/25 08:02:45;;;;;;;5.65;5.05;;;;;;;;;;5040576;28;20478;-63
2023/06/25 08:05:12;;;;;;;4.90;4.40;;;;;;;;;;5039261;28;20903;-63
2023/06/25 08:07:39;;;;;;;5.80;4.80;;;;;;;;;;5039235;28;20467;-63
2023/06/25 08:10:06;;;;;;;5.75;5.03;;;;;;;;;;5043581;28;20423;-62
2023/06/25 08:12:33;;;;;;;5.32;4.55;;;;;;;;;;5039140;28;20792;-63
2023/06/25 08:15:01;;;;;;;5.82;4.63;;;;;;;;;;5040455;28;20483;-63
2023/06/25 08:17:29;;;;;;;6.05;4.60;;;;;;;;;;5039503;28;20435;-63
2023/06/25 08:19:56;;;;;;;7.18;4.43;;;;;;;;;;5038052;28;20974;-63
2023/06/25 08:22:23;;;;;;;5.30;4.80;;;;;;;;;;5040732;28;20421;-63
2023/06/25 08:24:50;;;;;;;5.23;4.70;;;;;;;;;;5037181;28;20537;-63
2023/06/25 08:27:17;;;;;;;5.57;4.97;;;;;;;;;;5041052;28;20420;-63
2023/06/25 08:29:44;;;;;;;7.78;5.20;;;;;;;;;;5039969;28;20414;-62
2023/06/25 08:32:11;;;;;;;7.97;4.90;;;;;;;;;;5038047;28;20477;-63
2023/06/25 08:34:39;;;;;;;6.67;4.80;;;;;;;;;;5039540;28;20414;-63
2023/06/25 08:37:07;;;;;;;5.55;4.82;;;;;;;;;;5038550;28;20410;-63
2023/06/25 08:39:34;;;;;;;6.57;5.00;;;;;;;;;;5036322;28;20916;-63
2023/06/25 08:42:01;;;;;;;5.82;4.88;;;;;;;;;;5039923;28;20494;-63
2023/06/25 08:44:28;;;;;;;6.45;4.90;;;;;;;;;;5038175;28;20418;-63
2023/06/25 08:46:56;;;;;;;6.88;5.00;;;;;;;;;;5037431;28;20427;-63
2023/06/25 08:49:24;;;;;;;6.55;4.95;;;;;;;;;;5038718;28;20414;-62
2023/06/25 08:51:54;;;;;;;6.45;5.40;;;;;;;;;;5038741;28;20450;-62
2023/06/25 08:54:21;;;;;;;7.25;5.45;;;;;;;;;;5037942;28;20514;-63
2023/06/25 08:56:48;;;;;;;5.60;5.10;;;;;;;;;;5033504;28;20640;-62
2023/06/25 08:59:15;;;;;;;6.97;5.30;;;;;;;;;;5044279;28;20483;-63
2023/06/25 09:01:42;;;;;;;7.57;5.07;;;;;;;;;;5037864;28;20999;-63
2023/06/25 09:04:09;;;;;;;5.53;5.03;;;;;;;;;;5038585;28;20427;-63
2023/06/25 09:06:39;;;;;;;6.07;5.07;;;;;;;;;;5042136;28;20479;-64
2023/06/25 09:09:10;;;;;;;5.70;5.13;;;;;;;;;;5039017;28;20429;-64
2023/06/25 09:11:40;;;;;;;5.70;5.10;;;;;;;;;;5043954;28;20432;-64
2023/06/25 09:14:07;;;;;;;5.80;5.20;;;;;;;;;;5038289;28;20497;-64
2023/06/25 09:16:34;;;;;;;8.57;5.60;;;;;;;;;;5040303;28;20463;-63
2023/06/25 09:19:01;;;;;;;5.90;5.10;;;;;;;;;;5039827;28;20450;-63
2023/06/25 09:21:36;;;;;;;5.78;5.18;;;;;;;;;;5040426;28;20421;-63
2023/06/25 09:24:12;;;;;;;6.65;4.85;;;;;;;;;;5041102;28;20480;-62
2023/06/25 09:26:44;;;;;;;6.95;5.32;;;;;;;;;;5041049;28;20415;-62
2023/06/25 09:29:11;;;;;;;7.07;5.22;;;;;;;;;;5042197;28;20419;-62
2023/06/25 09:31:41;;;;;;;5.95;5.35;;;;;;;;;;5043562;28;20948;-62
2023/06/25 09:34:08;;;;;;;5.70;5.20;;;;;;;;;;5042597;28;20472;-67
2023/06/25 09:36:36;;;;;;;5.30;4.80;;;;;;;;;;5043971;28;20486;-62
2023/06/25 09:39:03;;;;;;;5.30;4.72;;;;;;;;;;5042528;28;20414;-61
2023/06/25 09:41:34;;;;;;;5.93;4.88;;;;;;;;;;5046696;28;21187;-62
2023/06/25 09:44:02;;;;;;;5.65;5.10;;;;;;;;;;5044767;28;20475;-62
2023/06/25 09:46:30;;;;;;;6.32;5.50;;;;;;;;;;5043890;28;20803;-63
2023/06/25 09:49:00;;;;;;;6.03;4.97;;;;;;;;;;5045086;28;21113;-62
2023/06/25 09:51:31;;;;;;;5.50;5.00;;;;;;;;;;5046564;28;20427;-62
2023/06/25 09:54:00;;;;;;;5.18;4.68;;;;;;;;;;5047381;28;20420;-63
2023/06/25 09:56:27;;;;;;;6.88;5.00;;;;;;;;;;5046237;28;20413;-61
2023/06/25 09:58:55;;;;;;;6.00;4.68;;;;;;;;;;5041638;28;20407;-61
2023/06/25 10:01:22;;;;;;;6.72;4.72;;;;;;;;;;5039625;28;20427;-62
2023/06/25 10:03:49;;;;;;;5.95;4.75;;;;;;;;;;5043800;28;20432;-64
2023/06/25 10:06:16;;;;;;;5.93;4.85;;;;;;;;;;5047575;28;20428;-61
2023/06/25 10:08:43;;;;;;;6.25;4.78;;;;;;;;;;5044567;28;20427;-62
2023/06/25 10:11:10;;;;;;;5.30;4.78;;;;;;;;;;5042779;28;20474;-64
2023/06/25 10:13:40;;;;;;;6.43;5.30;;;;;;;;;;5041994;28;20431;-70
2023/06/25 10:16:09;;;;;;;5.97;4.90;;;;;;;;;;5043929;28;20415;-70
2023/06/25 10:18:41;;;;;;;6.13;4.90;;;;;;;;;;5050290;28;20467;-66
2023/06/25 10:21:08;;;;;;;6.15;5.00;;;;;;;;;;5035949;28;20429;-63
2023/06/25 10:23:37;;;;;;;4.88;4.38;;;;;;;;;;5030624;28;20455;-61
2023/06/25 10:26:04;;;;;;;5.30;4.80;;;;;;;;;;5042503;28;20424;-65
2023/06/25 10:28:34;;;;;;;6.78;4.68;;;;;;;;;;5043433;28;20417;-65
2023/06/25 10:31:01;;;;;;;5.53;4.82;;;;;;;;;;5042181;28;20415;-64
2023/06/25 10:33:31;;;;;;;5.63;5.10;;;;;;;;;;5042006;28;20904;-63
2023/06/25 10:35:59;;;;;;;6.00;4.97;;;;;;;;;;5031521;28;20422;-61
2023/06/25 10:38:26;;;;;;;5.63;5.10;;;;;;;;;;5034995;28;20418;-59
2023/06/25 10:40:54;;;;;;;6.78;4.88;;;;;;;;;;5041413;28;20453;-61
2023/06/25 10:43:21;;;;;;;7.60;4.65;;;;;;;;;;5047410;28;20514;-61
2023/06/25 10:45:49;;;;;;;5.85;4.90;;;;;;;;;;5042674;28;20422;-62
2023/06/25 10:48:16;;;;;;;6.85;5.18;;;;;;;;;;5038092;28;20424;-62
2023/06/25 10:50:44;;;;;;;5.30;4.80;;;;;;;;;;5040843;28;20878;-61
2023/06/25 10:53:12;;;;;;;5.22;4.60;;;;;;;;;;5041288;28;20490;-62
2023/06/25 10:55:40;;;;;;;5.80;5.00;;;;;;;;;;5039773;28;20817;-64
2023/06/25 10:58:08;;;;;;;5.53;4.70;;;;;;;;;;5042027;28;20422;-65
2023/06/25 11:00:35;;;;;;;6.07;5.00;;;;;;;;;;5040197;28;20913;-66
2023/06/25 11:03:02;;;;;;;6.40;4.68;;;;;;;;;;5042461;28;20559;-65
2023/06/25 11:05:34;;;;;;;8.00;4.95;;;;;;;;;;5032814;28;20261;-65
2023/06/25 11:08:04;;;;;;;5.65;4.50;;;;;;;;;;5038029;28;20214;-65
2023/06/25 11:10:31;;;;;;;7.63;5.20;;;;;;;;;;5033271;28;20246;-65
2023/06/25 11:12:58;;;;;;;5.93;5.32;;;;;;;;;;5039233;28;20202;-65
2023/06/25 11:15:25;;;;;;;5.13;4.60;;;;;;;;;;5042880;28;20283;-66
2023/06/25 11:17:52;;;;;;;4.90;4.43;;;;;;;;;;5041742;28;20218;-64
2023/06/25 11:20:20;;;;;;;7.07;4.70;;;;;;;;;;5042021;28;20261;-65
2023/06/25 11:22:47;;;;;;;8.10;5.00;;;;;;;;;;5040282;28;20269;-65
2023/06/25 11:25:15;;;;;;;5.40;4.70;;;;;;;;;;5039999;28;20261;-65
2023/06/25 11:27:42;;;;;;;5.10;4.60;;;;;;;;;;5036868;28;20218;-65
2023/06/25 11:30:10;;;;;;;5.10;4.47;;;;;;;;;;5040182;28;20201;-65
2023/06/25 11:32:38;;;;;;;5.43;4.87;;;;;;;;;;5042948;28;20267;-65
2023/06/25 11:35:12;;;;;;;6.63;4.90;;;;;;;;;;5033868;28;20276;-64
2023/06/25 11:37:46;;;;;;;4.77;4.27;;;;;;;;;;5032931;28;20199;-67
2023/06/25 11:40:24;;;;;;;6.47;4.87;;;;;;;;;;5035871;28;20317;-69
2023/06/25 11:42:52;;;;;;;6.17;4.87;;;;;;;;;;5043843;28;20252;-67
2023/06/25 11:45:19;;;;;;;5.17;4.67;;;;;;;;;;5041985;28;20209;-66
2023/06/25 11:47:46;;;;;;;5.40;4.43;;;;;;;;;;5040877;28;20218;-68
2023/06/25 11:50:14;;;;;;;6.03;4.83;;;;;;;;;;5042662;28;20206;-68
2023/06/25 11:52:41;;;;;;;6.60;4.47;;;;;;;;;;5040986;28;20205;-69
2023/06/25 11:55:08;;;;;;;5.90;4.65;;;;;;;;;;5041786;28;20218;-68
2023/06/25 11:57:36;;;;;;;5.50;4.80;;;;;;;;;;5039035;28;20202;-68
2023/06/25 12:00:04;;;;;;;6.53;5.03;;;;;;;;;;5039023;28;20226;-68
2023/06/25 12:02:31;;;;;;;4.77;4.27;;;;;;;;;;5042847;28;20214;-68
2023/06/25 12:04:58;;;;;;;6.80;4.70;;;;;;;;;;5041657;28;20259;-68
2023/06/25 12:07:25;;;;;;;6.82;5.00;;;;;;;;;;5042030;28;20216;-68
2023/06/25 12:09:52;;;;;;;5.18;4.38;;;;;;;;;;5042252;28;20694;-68
2023/06/25 12:12:19;;;;;;;5.28;4.78;;;;;;;;;;5041079;28;20226;-66
2023/06/25 12:14:48;;;;;;;5.10;4.40;;;;;;;;;;5039097;28;20500;-66
2023/06/25 12:17:15;;;;;;;6.70;4.70;;;;;;;;;;5035805;28;20297;-66
2023/06/25 12:19:42;;;;;;;5.35;4.50;;;;;;;;;;5039293;28;20247;-66
2023/06/25 12:22:09;;;;;;;9.07;4.75;;;;;;;;;;5039398;28;20296;-65
2023/06/25 12:24:37;;;;;;;8.00;4.70;;;;;;;;;;5041044;28;20206;-65
2023/06/25 12:27:05;;;;;;;5.15;4.65;;;;;;;;;;5040090;28;20741;-65
2023/06/25 12:29:32;;;;;;;5.32;4.75;;;;;;;;;;5044363;28;20206;-65
2023/06/25 12:32:00;;;;;;;5.78;4.65;;;;;;;;;;5044110;28;20275;-65
2023/06/25 12:34:27;;;;;;;5.07;4.15;;;;;;;;;;5042563;28;20202;-65
2023/06/25 12:36:55;;;;;;;6.40;4.90;;;;;;;;;;5043900;28;20225;-66
2023/06/25 12:39:22;;;;;;;6.88;4.50;;;;;;;;;;5044511;28;20202;-65
2023/06/25 12:41:49;;;;;;;5.97;4.50;;;;;;;;;;5038859;28;20686;-66
2023/06/25 12:44:16;;;;;;;5.22;4.72;;;;;;;;;;5037783;28;20214;-66
2023/06/25 12:46:43;;;;;;;5.40;4.90;;;;;;;;;;5033475;28;20209;-66
2023/06/25 12:49:11;;;;;;;6.40;4.82;;;;;;;;;;5038415;28;20279;-66
2023/06/25 12:51:38;;;;;;;5.82;4.82;;;;;;;;;;5038299;28;20262;-68
2023/06/25 12:54:05;;;;;;;6.25;4.93;;;;;;;;;;5039045;28;20608;-68
2023/06/25 12:56:32;;;;;;;5.55;4.60;;;;;;;;;;5041082;28;20209;-68
2023/06/25 12:58:59;;;;;;;5.97;4.78;;;;;;;;;;5042895;28;20210;-68
2023/06/25 13:01:26;;;;;;;6.47;5.07;;;;;;;;;;5041740;28;20240;-67
2023/06/25 13:03:53;;;;;;;5.57;4.77;;;;;;;;;;5044022;28;20214;-67
2023/06/25 13:06:22;;;;;;;5.37;4.87;;;;;;;;;;5042223;28;20623;-70
2023/06/25 13:08:49;;;;;;;5.23;4.73;;;;;;;;;;5042409;28;20205;-67
2023/06/25 13:11:16;;;;;;;5.57;4.72;;;;;;;;;;5045516;28;20229;-66
2023/06/25 13:13:43;;;;;;;5.63;4.70;;;;;;;;;;5039812;28;20733;-66
2023/06/25 13:16:12;;;;;;;5.57;4.55;;;;;;;;;;5043157;28;20276;-65
2023/06/25 13:18:40;;;;;;;5.40;4.55;;;;;;;;;;5045793;28;20325;-64
2023/06/25 13:21:08;;;;;;;5.47;4.70;;;;;;;;;;5046418;28;20226;-65
2023/06/25 13:23:37;;;;;;;5.60;5.10;;;;;;;;;;5047140;28;20324;-66
2023/06/25 13:26:05;;;;;;;7.10;4.57;;;;;;;;;;5046169;28;20206;-66
2023/06/25 13:28:32;;;;;;;5.05;4.32;;;;;;;;;;5045601;28;20582;-65
2023/06/25 13:30:59;;;;;;;5.28;4.78;;;;;;;;;;5042472;28;20257;-67
2023/06/25 13:33:26;;;;;;;9.48;6.30;;;;;;;;;;5041665;28;20292;-65
2023/06/25 13:35:53;;;;;;;6.03;4.88;;;;;;;;;;5039617;28;20203;-64
2023/06/25 13:38:21;;;;;;;6.47;5.28;;;;;;;;;;5049303;28;20275;-66
2023/06/25 13:40:49;;;;;;;5.57;5.03;;;;;;;;;;5042526;28;20280;-65
2023/06/25 13:43:16;;;;;;;5.32;4.63;;;;;;;;;;5043605;28;20259;-65
2023/06/25 13:45:43;;;;;;;7.00;6.10;;;;;;;;;;5044003;28;20267;-67
2023/06/25 13:48:10;;;;;;;5.38;4.85;;;;;;;;;;5037984;28;20627;-66
2023/06/25 13:50:37;;;;;;;5.90;5.03;;;;;;;;;;5043582;28;20226;-65
2023/06/25 13:53:04;;;;;;;5.22;4.72;;;;;;;;;;5051190;28;20654;-68
2023/06/25 13:55:31;;;;;;;6.97;5.03;;;;;;;;;;5045821;28;20248;-68
2023/06/25 13:58:00;;;;;;;5.15;4.65;;;;;;;;;;5045128;28;20213;-67
2023/06/25 14:00:27;;;;;;;5.82;4.70;;;;;;;;;;5042493;28;20234;-68
2023/06/25 14:02:54;;;;;;;5.05;4.55;;;;;;;;;;5042141;28;20283;-66
2023/06/25 14:05:21;;;;;;;6.82;4.60;;;;;;;;;;5041440;28;20867;-66
2023/06/25 14:07:48;;;;;;;5.47;4.88;;;;;;;;;;5042358;28;20210;-66
2023/06/25 14:10:16;;;;;;;5.30;4.80;;;;;;;;;;5043539;28;20698;-66
2023/06/25 14:12:43;;;;;;;6.47;4.78;;;;;;;;;;5043122;28;20286;-65
2023/06/25 14:15:11;;;;;;;5.63;4.75;;;;;;;;;;5043727;28;20744;-67
2023/06/25 14:17:38;;;;;;;5.25;4.75;;;;;;;;;;5043349;28;20815;-67
2023/06/25 14:20:06;;;;;;;7.20;4.65;;;;;;;;;;5042559;28;20210;-65
2023/06/25 14:22:33;;;;;;;5.05;4.57;;;;;;;;;;5044050;28;20767;-67
2023/06/25 14:25:00;;;;;;;8.35;4.72;;;;;;;;;;5045195;28;20221;-67
2023/06/25 14:27:27;;;;;;;5.00;4.53;;;;;;;;;;5037397;28;20264;-66
2023/06/25 14:29:54;;;;;;;4.75;4.20;;;;;;;;;;5043084;28;20213;-68
2023/06/25 14:32:22;;;;;;;5.45;4.53;;;;;;;;;;5043465;28;20229;-65
2023/06/25 14:34:49;;;;;;;4.40;4.00;;;;;;;;;;5040871;28;20206;-65
2023/06/25 14:37:16;;;;;;;5.43;4.82;;;;;;;;;;5041967;28;21122;-65
2023/06/25 14:39:43;;;;;;;5.30;4.78;;;;;;;;;;5047193;28;20209;-65
2023/06/25 14:42:10;;;;;;;5.35;4.85;;;;;;;;;;5043147;28;20222;-65
2023/06/25 14:44:37;;;;;;;5.07;4.57;;;;;;;;;;5040610;28;20202;-66